sensor_id;sensor_type;location;lat;lon;timestamp;P1;durP1;ratioP1;P2;durP2;ratioP2
42084;SDS011;27746;52.228;20.890;2024-01-06T00:02:21;18.23;;;7.80;;
42084;SDS011;27746;52.228;20.890;2024-01-06T00:04:51;15.77;;;6.90;;
42084;SDS011;27746;52.228;20.890;2024-01-06T00:07:19;18.00;;;8.68;;
42084;SDS011;27746;52.228;20.890;2024-01-06T00:09:46;18.83;;;9.10;;
42084;SDS011;27746;52.228;20.890;2024-01-06T00:12:13;15.95;;;9.15;;
42084;SDS011;27746;52.228;20.890;2024-01-06T00:14:40;17.85;;;8.40;;
42084;SDS011;27746;52.228;20.890;2024-01-06T00:17:10;19.42;;;9.45;;
42084;SDS011;27746;52.228;20.890;2024-01-06T00:19:38;18.73;;;9.25;;
42084;SDS011;27746;52.228;20.890;2024-01-06T00:22:05;20.30;;;9.50;;
42084;SDS011;27746;52.228;20.890;2024-01-06T00:24:32;22.15;;;9.63;;
42084;SDS011;27746;52.228;20.890;2024-01-06T00:27:00;24.55;;;11.18;;
42084;SDS011;27746;52.228;20.890;2024-01-06T00:29:27;17.95;;;10.02;;
42084;SDS011;27746;52.228;20.890;2024-01-06T00:31:54;23.92;;;11.32;;
42084;SDS011;27746;52.228;20.890;2024-01-06T00:34:21;22.40;;;11.20;;
42084;SDS011;27746;52.228;20.890;2024-01-06T00:36:49;25.08;;;11.00;;
42084;SDS011;27746;52.228;20.890;2024-01-06T00:39:16;24.95;;;12.50;;
42084;SDS011;27746;52.228;20.890;2024-01-06T00:41:43;22.30;;;10.25;;
42084;SDS011;27746;52.228;20.890;2024-01-06T00:44:11;26.45;;;12.35;;
42084;SDS011;27746;52.228;20.890;2024-01-06T00:46:39;19.95;;;10.27;;
42084;SDS011;27746;52.228;20.890;2024-01-06T00:49:08;26.70;;;12.32;;
42084;SDS011;27746;52.228;20.890;2024-01-06T00:51:35;25.77;;;12.13;;
42084;SDS011;27746;52.228;20.890;2024-01-06T00:54:04;22.33;;;11.73;;
42084;SDS011;27746;52.228;20.890;2024-01-06T00:56:31;23.80;;;11.75;;
42084;SDS011;27746;52.228;20.890;2024-01-06T00:58:58;24.00;;;11.57;;
42084;SDS011;27746;52.228;20.890;2024-01-06T01:01:26;23.73;;;11.32;;
42084;SDS011;27746;52.228;20.890;2024-01-06T01:03:53;22.63;;;11.48;;
42084;SDS011;27746;52.228;20.890;2024-01-06T01:06:20;23.05;;;11.52;;
42084;SDS011;27746;52.228;20.890;2024-01-06T01:08:47;20.63;;;10.65;;
42084;SDS011;27746;52.228;20.890;2024-01-06T01:11:16;23.33;;;10.82;;
42084;SDS011;27746;52.228;20.890;2024-01-06T01:13:43;22.33;;;9.85;;
42084;SDS011;27746;52.228;20.890;2024-01-06T01:16:10;24.15;;;11.27;;
42084;SDS011;27746;52.228;20.890;2024-01-06T01:18:37;20.80;;;10.07;;
42084;SDS011;27746;52.228;20.890;2024-01-06T01:21:04;23.95;;;10.30;;
42084;SDS011;27746;52.228;20.890;2024-01-06T01:23:31;23.80;;;10.90;;
42084;SDS011;27746;52.228;20.890;2024-01-06T01:25:58;19.35;;;11.45;;
42084;SDS011;27746;52.228;20.890;2024-01-06T01:28:27;18.63;;;9.65;;
42084;SDS011;27746;52.228;20.890;2024-01-06T01:30:54;18.75;;;9.60;;
42084;SDS011;27746;52.228;20.890;2024-01-06T01:33:21;21.92;;;9.63;;
42084;SDS011;27746;52.228;20.890;2024-01-06T01:35:49;21.83;;;10.73;;
42084;SDS011;27746;52.228;20.890;2024-01-06T01:38:16;18.90;;;10.18;;
42084;SDS011;27746;52.228;20.890;2024-01-06T01:40:43;21.50;;;9.85;;
42084;SDS011;27746;52.228;20.890;2024-01-06T01:43:15;19.00;;;9.48;;
42084;SDS011;27746;52.228;20.890;2024-01-06T01:45:44;20.83;;;9.82;;
42084;SDS011;27746;52.228;20.890;2024-01-06T01:48:12;18.00;;;8.85;;
42084;SDS011;27746;52.228;20.890;2024-01-06T01:50:39;16.17;;;8.73;;
42084;SDS011;27746;52.228;20.890;2024-01-06T01:53:07;23.90;;;9.15;;
42084;SDS011;27746;52.228;20.890;2024-01-06T01:55:34;20.05;;;10.07;;
42084;SDS011;27746;52.228;20.890;2024-01-06T01:58:01;20.35;;;9.18;;
42084;SDS011;27746;52.228;20.890;2024-01-06T02:00:28;17.15;;;9.25;;
42084;SDS011;27746;52.228;20.890;2024-01-06T02:02:57;21.90;;;9.52;;
42084;SDS011;27746;52.228;20.890;2024-01-06T02:05:25;19.98;;;8.90;;
42084;SDS011;27746;52.228;20.890;2024-01-06T02:07:52;17.13;;;9.25;;
42084;SDS011;27746;52.228;20.890;2024-01-06T02:10:19;18.55;;;8.93;;
42084;SDS011;27746;52.228;20.890;2024-01-06T02:12:47;19.58;;;9.55;;
42084;SDS011;27746;52.228;20.890;2024-01-06T02:15:16;17.60;;;9.35;;
42084;SDS011;27746;52.228;20.890;2024-01-06T02:17:43;19.02;;;8.70;;
42084;SDS011;27746;52.228;20.890;2024-01-06T02:20:12;16.58;;;9.63;;
42084;SDS011;27746;52.228;20.890;2024-01-06T02:22:41;17.85;;;9.02;;
42084;SDS011;27746;52.228;20.890;2024-01-06T02:25:08;18.52;;;8.45;;
42084;SDS011;27746;52.228;20.890;2024-01-06T02:27:37;16.50;;;8.95;;
42084;SDS011;27746;52.228;20.890;2024-01-06T02:30:05;17.73;;;7.78;;
42084;SDS011;27746;52.228;20.890;2024-01-06T02:32:32;15.32;;;7.13;;
42084;SDS011;27746;52.228;20.890;2024-01-06T02:34:59;16.00;;;8.30;;
42084;SDS011;27746;52.228;20.890;2024-01-06T02:37:26;15.55;;;7.13;;
42084;SDS011;27746;52.228;20.890;2024-01-06T02:39:55;15.00;;;7.82;;
42084;SDS011;27746;52.228;20.890;2024-01-06T02:42:22;15.95;;;7.47;;
42084;SDS011;27746;52.228;20.890;2024-01-06T02:44:50;16.98;;;7.75;;
42084;SDS011;27746;52.228;20.890;2024-01-06T02:47:17;14.70;;;6.97;;
42084;SDS011;27746;52.228;20.890;2024-01-06T02:49:44;13.48;;;6.78;;
42084;SDS011;27746;52.228;20.890;2024-01-06T02:52:11;11.43;;;6.32;;
42084;SDS011;27746;52.228;20.890;2024-01-06T02:54:38;13.88;;;6.45;;
42084;SDS011;27746;52.228;20.890;2024-01-06T02:57:07;13.82;;;7.00;;
42084;SDS011;27746;52.228;20.890;2024-01-06T02:59:34;16.50;;;7.28;;
42084;SDS011;27746;52.228;20.890;2024-01-06T03:02:01;11.27;;;6.25;;
42084;SDS011;27746;52.228;20.890;2024-01-06T03:04:28;14.93;;;7.85;;
42084;SDS011;27746;52.228;20.890;2024-01-06T03:06:55;12.30;;;7.80;;
42084;SDS011;27746;52.228;20.890;2024-01-06T03:09:22;18.88;;;8.52;;
42084;SDS011;27746;52.228;20.890;2024-01-06T03:11:50;13.82;;;7.85;;
42084;SDS011;27746;52.228;20.890;2024-01-06T03:14:18;16.83;;;8.27;;
42084;SDS011;27746;52.228;20.890;2024-01-06T03:16:45;16.20;;;8.27;;
42084;SDS011;27746;52.228;20.890;2024-01-06T03:19:12;15.10;;;8.00;;
42084;SDS011;27746;52.228;20.890;2024-01-06T03:21:39;16.75;;;8.70;;
42084;SDS011;27746;52.228;20.890;2024-01-06T03:24:07;14.43;;;7.28;;
42084;SDS011;27746;52.228;20.890;2024-01-06T03:26:35;14.55;;;7.53;;
42084;SDS011;27746;52.228;20.890;2024-01-06T03:29:02;15.60;;;8.13;;
42084;SDS011;27746;52.228;20.890;2024-01-06T03:31:30;16.55;;;8.13;;
42084;SDS011;27746;52.228;20.890;2024-01-06T03:33:57;16.83;;;8.18;;
42084;SDS011;27746;52.228;20.890;2024-01-06T03:36:25;16.40;;;8.40;;
42084;SDS011;27746;52.228;20.890;2024-01-06T03:38:52;15.65;;;8.23;;
42084;SDS011;27746;52.228;20.890;2024-01-06T03:41:19;16.55;;;8.32;;
42084;SDS011;27746;52.228;20.890;2024-01-06T03:43:46;18.90;;;8.55;;
42084;SDS011;27746;52.228;20.890;2024-01-06T03:46:13;15.73;;;8.18;;
42084;SDS011;27746;52.228;20.890;2024-01-06T03:48:41;15.88;;;8.18;;
42084;SDS011;27746;52.228;20.890;2024-01-06T03:51:09;17.38;;;8.10;;
42084;SDS011;27746;52.228;20.890;2024-01-06T03:53:36;15.32;;;8.43;;
42084;SDS011;27746;52.228;20.890;2024-01-06T03:56:03;15.23;;;7.53;;
42084;SDS011;27746;52.228;20.890;2024-01-06T03:58:31;15.05;;;8.57;;
42084;SDS011;27746;52.228;20.890;2024-01-06T04:00:58;16.73;;;8.85;;
42084;SDS011;27746;52.228;20.890;2024-01-06T04:03:25;18.38;;;8.45;;
42084;SDS011;27746;52.228;20.890;2024-01-06T04:05:53;15.63;;;7.80;;
42084;SDS011;27746;52.228;20.890;2024-01-06T04:08:21;15.05;;;8.07;;
42084;SDS011;27746;52.228;20.890;2024-01-06T04:10:48;13.25;;;7.40;;
42084;SDS011;27746;52.228;20.890;2024-01-06T04:13:15;20.30;;;9.57;;
42084;SDS011;27746;52.228;20.890;2024-01-06T04:15:42;15.68;;;8.00;;
42084;SDS011;27746;52.228;20.890;2024-01-06T04:18:09;16.85;;;8.50;;
42084;SDS011;27746;52.228;20.890;2024-01-06T04:20:36;16.92;;;9.48;;
42084;SDS011;27746;52.228;20.890;2024-01-06T04:23:05;15.88;;;8.32;;
42084;SDS011;27746;52.228;20.890;2024-01-06T04:25:32;17.35;;;9.55;;
42084;SDS011;27746;52.228;20.890;2024-01-06T04:27:59;15.48;;;9.10;;
42084;SDS011;27746;52.228;20.890;2024-01-06T04:30:26;16.33;;;9.20;;
42084;SDS011;27746;52.228;20.890;2024-01-06T04:32:53;18.73;;;9.05;;
42084;SDS011;27746;52.228;20.890;2024-01-06T04:35:21;15.95;;;9.32;;
42084;SDS011;27746;52.228;20.890;2024-01-06T04:37:48;19.73;;;9.43;;
42084;SDS011;27746;52.228;20.890;2024-01-06T04:40:17;17.40;;;8.75;;
42084;SDS011;27746;52.228;20.890;2024-01-06T04:42:44;19.08;;;8.80;;
42084;SDS011;27746;52.228;20.890;2024-01-06T04:45:11;21.55;;;10.25;;
42084;SDS011;27746;52.228;20.890;2024-01-06T04:47:38;17.40;;;9.07;;
42084;SDS011;27746;52.228;20.890;2024-01-06T04:50:06;19.98;;;9.95;;
42084;SDS011;27746;52.228;20.890;2024-01-06T04:52:33;20.20;;;9.73;;
42084;SDS011;27746;52.228;20.890;2024-01-06T04:55:00;19.80;;;10.23;;
42084;SDS011;27746;52.228;20.890;2024-01-06T04:57:29;19.67;;;10.43;;
42084;SDS011;27746;52.228;20.890;2024-01-06T04:59:56;21.92;;;11.43;;
42084;SDS011;27746;52.228;20.890;2024-01-06T05:02:23;21.00;;;9.98;;
42084;SDS011;27746;52.228;20.890;2024-01-06T05:04:50;20.90;;;9.75;;
42084;SDS011;27746;52.228;20.890;2024-01-06T05:07:17;19.73;;;10.38;;
42084;SDS011;27746;52.228;20.890;2024-01-06T05:09:44;21.27;;;11.23;;
42084;SDS011;27746;52.228;20.890;2024-01-06T05:12:12;19.67;;;10.65;;
42084;SDS011;27746;52.228;20.890;2024-01-06T05:14:41;21.25;;;10.82;;
42084;SDS011;27746;52.228;20.890;2024-01-06T05:17:08;20.38;;;10.10;;
42084;SDS011;27746;52.228;20.890;2024-01-06T05:19:35;22.88;;;10.68;;
42084;SDS011;27746;52.228;20.890;2024-01-06T05:22:03;24.45;;;10.30;;
42084;SDS011;27746;52.228;20.890;2024-01-06T05:24:30;20.90;;;10.02;;
42084;SDS011;27746;52.228;20.890;2024-01-06T05:26:58;23.55;;;11.32;;
42084;SDS011;27746;52.228;20.890;2024-01-06T05:29:25;19.63;;;10.65;;
42084;SDS011;27746;52.228;20.890;2024-01-06T05:31:54;20.85;;;10.82;;
42084;SDS011;27746;52.228;20.890;2024-01-06T05:34:21;17.70;;;9.65;;
42084;SDS011;27746;52.228;20.890;2024-01-06T05:36:48;18.73;;;9.23;;
42084;SDS011;27746;52.228;20.890;2024-01-06T05:39:16;20.20;;;9.70;;
42084;SDS011;27746;52.228;20.890;2024-01-06T05:41:43;17.42;;;9.27;;
42084;SDS011;27746;52.228;20.890;2024-01-06T05:44:12;22.63;;;9.93;;
42084;SDS011;27746;52.228;20.890;2024-01-06T05:46:39;18.15;;;9.30;;
42084;SDS011;27746;52.228;20.890;2024-01-06T05:49:07;19.95;;;9.57;;
42084;SDS011;27746;52.228;20.890;2024-01-06T05:51:35;21.20;;;8.77;;
42084;SDS011;27746;52.228;20.890;2024-01-06T05:54:02;15.57;;;9.02;;
42084;SDS011;27746;52.228;20.890;2024-01-06T05:56:29;19.95;;;9.40;;
42084;SDS011;27746;52.228;20.890;2024-01-06T05:58:56;18.50;;;9.30;;
42084;SDS011;27746;52.228;20.890;2024-01-06T06:01:23;18.40;;;9.48;;
42084;SDS011;27746;52.228;20.890;2024-01-06T06:03:51;20.65;;;9.68;;
42084;SDS011;27746;52.228;20.890;2024-01-06T06:06:19;17.95;;;9.15;;
42084;SDS011;27746;52.228;20.890;2024-01-06T06:08:46;18.88;;;9.68;;
42084;SDS011;27746;52.228;20.890;2024-01-06T06:11:14;21.35;;;10.80;;
42084;SDS011;27746;52.228;20.890;2024-01-06T06:13:41;22.67;;;10.65;;
42084;SDS011;27746;52.228;20.890;2024-01-06T06:16:09;19.65;;;9.63;;
42084;SDS011;27746;52.228;20.890;2024-01-06T06:18:37;18.90;;;9.95;;
42084;SDS011;27746;52.228;20.890;2024-01-06T06:21:06;22.75;;;11.05;;
42084;SDS011;27746;52.228;20.890;2024-01-06T06:23:35;24.48;;;11.20;;
42084;SDS011;27746;52.228;20.890;2024-01-06T06:26:03;21.95;;;10.57;;
42084;SDS011;27746;52.228;20.890;2024-01-06T06:28:30;20.88;;;10.63;;
42084;SDS011;27746;52.228;20.890;2024-01-06T06:30:57;22.17;;;11.20;;
42084;SDS011;27746;52.228;20.890;2024-01-06T06:33:24;22.45;;;11.25;;
42084;SDS011;27746;52.228;20.890;2024-01-06T06:35:51;23.50;;;11.30;;
42084;SDS011;27746;52.228;20.890;2024-01-06T06:38:18;20.27;;;10.68;;
42084;SDS011;27746;52.228;20.890;2024-01-06T06:40:50;23.90;;;11.90;;
42084;SDS011;27746;52.228;20.890;2024-01-06T06:43:17;21.48;;;11.00;;
42084;SDS011;27746;52.228;20.890;2024-01-06T06:45:44;23.15;;;11.23;;
42084;SDS011;27746;52.228;20.890;2024-01-06T06:48:11;20.42;;;10.90;;
42084;SDS011;27746;52.228;20.890;2024-01-06T06:50:38;21.73;;;10.63;;
42084;SDS011;27746;52.228;20.890;2024-01-06T06:53:06;27.13;;;11.77;;
42084;SDS011;27746;52.228;20.890;2024-01-06T06:55:33;21.65;;;10.73;;
42084;SDS011;27746;52.228;20.890;2024-01-06T06:58:03;25.98;;;11.20;;
42084;SDS011;27746;52.228;20.890;2024-01-06T07:00:31;22.05;;;12.15;;
42084;SDS011;27746;52.228;20.890;2024-01-06T07:02:58;22.33;;;11.52;;
42084;SDS011;27746;52.228;20.890;2024-01-06T07:05:25;23.23;;;11.75;;
42084;SDS011;27746;52.228;20.890;2024-01-06T07:07:53;27.67;;;12.68;;
42084;SDS011;27746;52.228;20.890;2024-01-06T07:10:20;26.15;;;12.52;;
42084;SDS011;27746;52.228;20.890;2024-01-06T07:12:47;26.15;;;13.70;;
42084;SDS011;27746;52.228;20.890;2024-01-06T07:15:17;28.40;;;13.15;;
42084;SDS011;27746;52.228;20.890;2024-01-06T07:17:44;26.60;;;12.55;;
42084;SDS011;27746;52.228;20.890;2024-01-06T07:20:11;25.00;;;13.07;;
42084;SDS011;27746;52.228;20.890;2024-01-06T07:22:38;26.65;;;13.10;;
42084;SDS011;27746;52.228;20.890;2024-01-06T07:25:06;26.35;;;13.95;;
42084;SDS011;27746;52.228;20.890;2024-01-06T07:27:33;27.23;;;12.38;;
42084;SDS011;27746;52.228;20.890;2024-01-06T07:30:00;25.75;;;12.23;;
42084;SDS011;27746;52.228;20.890;2024-01-06T07:32:29;24.42;;;11.68;;
42084;SDS011;27746;52.228;20.890;2024-01-06T07:34:56;26.20;;;13.02;;
42084;SDS011;27746;52.228;20.890;2024-01-06T07:37:23;25.20;;;12.77;;
42084;SDS011;27746;52.228;20.890;2024-01-06T07:39:50;29.40;;;13.73;;
42084;SDS011;27746;52.228;20.890;2024-01-06T07:42:17;25.65;;;13.20;;
42084;SDS011;27746;52.228;20.890;2024-01-06T07:44:45;25.73;;;14.13;;
42084;SDS011;27746;52.228;20.890;2024-01-06T07:47:12;28.50;;;12.90;;
42084;SDS011;27746;52.228;20.890;2024-01-06T07:49:41;22.85;;;11.85;;
42084;SDS011;27746;52.228;20.890;2024-01-06T07:52:09;23.30;;;11.68;;
42084;SDS011;27746;52.228;20.890;2024-01-06T07:54:36;26.60;;;12.48;;
42084;SDS011;27746;52.228;20.890;2024-01-06T07:57:03;25.38;;;12.98;;
42084;SDS011;27746;52.228;20.890;2024-01-06T07:59:30;27.20;;;12.57;;
42084;SDS011;27746;52.228;20.890;2024-01-06T08:01:58;22.20;;;11.70;;
42084;SDS011;27746;52.228;20.890;2024-01-06T08:04:25;24.98;;;11.85;;
42084;SDS011;27746;52.228;20.890;2024-01-06T08:06:53;27.58;;;12.98;;
42084;SDS011;27746;52.228;20.890;2024-01-06T08:09:20;23.95;;;12.50;;
42084;SDS011;27746;52.228;20.890;2024-01-06T08:11:48;24.98;;;13.18;;
42084;SDS011;27746;52.228;20.890;2024-01-06T08:14:16;28.30;;;13.23;;
42084;SDS011;27746;52.228;20.890;2024-01-06T08:16:43;22.70;;;11.77;;
42084;SDS011;27746;52.228;20.890;2024-01-06T08:19:11;24.83;;;12.25;;
42084;SDS011;27746;52.228;20.890;2024-01-06T08:21:38;24.02;;;12.85;;
42084;SDS011;27746;52.228;20.890;2024-01-06T08:24:07;25.17;;;12.27;;
42084;SDS011;27746;52.228;20.890;2024-01-06T08:26:34;26.63;;;12.93;;
42084;SDS011;27746;52.228;20.890;2024-01-06T08:29:01;24.85;;;12.45;;
42084;SDS011;27746;52.228;20.890;2024-01-06T08:31:28;23.88;;;12.63;;
42084;SDS011;27746;52.228;20.890;2024-01-06T08:33:55;26.98;;;13.38;;
42084;SDS011;27746;52.228;20.890;2024-01-06T08:36:22;27.50;;;13.45;;
42084;SDS011;27746;52.228;20.890;2024-01-06T08:38:50;30.00;;;13.43;;
42084;SDS011;27746;52.228;20.890;2024-01-06T08:41:18;28.52;;;13.73;;
42084;SDS011;27746;52.228;20.890;2024-01-06T08:43:45;29.88;;;13.45;;
42084;SDS011;27746;52.228;20.890;2024-01-06T08:46:12;26.75;;;12.57;;
42084;SDS011;27746;52.228;20.890;2024-01-06T08:48:39;23.30;;;12.75;;
42084;SDS011;27746;52.228;20.890;2024-01-06T08:51:06;27.75;;;13.55;;
42084;SDS011;27746;52.228;20.890;2024-01-06T08:53:34;27.58;;;13.85;;
42084;SDS011;27746;52.228;20.890;2024-01-06T08:56:01;23.05;;;12.43;;
42084;SDS011;27746;52.228;20.890;2024-01-06T08:58:29;31.83;;;12.50;;
42084;SDS011;27746;52.228;20.890;2024-01-06T09:00:56;19.77;;;11.13;;
42084;SDS011;27746;52.228;20.890;2024-01-06T09:03:24;24.60;;;11.55;;
42084;SDS011;27746;52.228;20.890;2024-01-06T09:05:51;24.98;;;11.13;;
42084;SDS011;27746;52.228;20.890;2024-01-06T09:08:19;22.65;;;12.80;;
42084;SDS011;27746;52.228;20.890;2024-01-06T09:10:46;23.27;;;11.23;;
42084;SDS011;27746;52.228;20.890;2024-01-06T09:13:16;21.80;;;11.23;;
42084;SDS011;27746;52.228;20.890;2024-01-06T09:15:45;24.05;;;11.68;;
42084;SDS011;27746;52.228;20.890;2024-01-06T09:18:12;22.83;;;11.43;;
42084;SDS011;27746;52.228;20.890;2024-01-06T09:20:39;22.13;;;10.93;;
42084;SDS011;27746;52.228;20.890;2024-01-06T09:23:06;21.98;;;11.32;;
42084;SDS011;27746;52.228;20.890;2024-01-06T09:25:35;24.98;;;11.38;;
42084;SDS011;27746;52.228;20.890;2024-01-06T09:28:02;22.58;;;12.02;;
42084;SDS011;27746;52.228;20.890;2024-01-06T09:30:29;23.92;;;11.85;;
42084;SDS011;27746;52.228;20.890;2024-01-06T09:32:58;20.17;;;9.82;;
42084;SDS011;27746;52.228;20.890;2024-01-06T09:35:25;19.95;;;10.50;;
42084;SDS011;27746;52.228;20.890;2024-01-06T09:37:52;20.60;;;10.75;;
42084;SDS011;27746;52.228;20.890;2024-01-06T09:40:20;20.92;;;10.20;;
42084;SDS011;27746;52.228;20.890;2024-01-06T09:42:48;19.98;;;10.23;;
42084;SDS011;27746;52.228;20.890;2024-01-06T09:45:15;19.77;;;10.75;;
42084;SDS011;27746;52.228;20.890;2024-01-06T09:47:42;22.33;;;11.50;;
42084;SDS011;27746;52.228;20.890;2024-01-06T09:50:15;23.50;;;10.20;;
42084;SDS011;27746;52.228;20.890;2024-01-06T09:52:45;23.58;;;11.10;;
42084;SDS011;27746;52.228;20.890;2024-01-06T09:55:21;19.80;;;10.43;;
42084;SDS011;27746;52.228;20.890;2024-01-06T09:57:50;23.73;;;10.65;;
42084;SDS011;27746;52.228;20.890;2024-01-06T10:00:17;20.20;;;10.30;;
42084;SDS011;27746;52.228;20.890;2024-01-06T10:02:45;20.38;;;9.68;;
42084;SDS011;27746;52.228;20.890;2024-01-06T10:05:13;24.20;;;11.18;;
42084;SDS011;27746;52.228;20.890;2024-01-06T10:07:42;20.45;;;11.23;;
42084;SDS011;27746;52.228;20.890;2024-01-06T10:10:09;24.23;;;11.65;;
42084;SDS011;27746;52.228;20.890;2024-01-06T10:12:37;19.60;;;10.82;;
42084;SDS011;27746;52.228;20.890;2024-01-06T10:15:05;20.60;;;10.15;;
42084;SDS011;27746;52.228;20.890;2024-01-06T10:17:36;18.08;;;10.57;;
42084;SDS011;27746;52.228;20.890;2024-01-06T10:20:06;20.25;;;10.55;;
42084;SDS011;27746;52.228;20.890;2024-01-06T10:22:34;21.55;;;10.25;;
42084;SDS011;27746;52.228;20.890;2024-01-06T10:25:03;21.33;;;10.25;;
42084;SDS011;27746;52.228;20.890;2024-01-06T10:27:31;20.02;;;9.63;;
42084;SDS011;27746;52.228;20.890;2024-01-06T10:30:00;19.35;;;10.57;;
42084;SDS011;27746;52.228;20.890;2024-01-06T10:32:30;17.08;;;8.95;;
42084;SDS011;27746;52.228;20.890;2024-01-06T10:34:57;17.55;;;8.50;;
42084;SDS011;27746;52.228;20.890;2024-01-06T10:37:25;20.38;;;9.70;;
42084;SDS011;27746;52.228;20.890;2024-01-06T10:40:05;17.40;;;9.55;;
42084;SDS011;27746;52.228;20.890;2024-01-06T10:42:33;17.13;;;8.80;;
42084;SDS011;27746;52.228;20.890;2024-01-06T10:45:00;15.70;;;8.55;;
42084;SDS011;27746;52.228;20.890;2024-01-06T10:47:28;19.73;;;9.18;;
42084;SDS011;27746;52.228;20.890;2024-01-06T10:49:57;21.27;;;9.50;;
42084;SDS011;27746;52.228;20.890;2024-01-06T10:52:25;18.63;;;9.18;;
42084;SDS011;27746;52.228;20.890;2024-01-06T10:54:53;18.25;;;9.18;;
42084;SDS011;27746;52.228;20.890;2024-01-06T10:57:22;20.00;;;10.07;;
42084;SDS011;27746;52.228;20.890;2024-01-06T10:59:50;18.63;;;9.77;;
42084;SDS011;27746;52.228;20.890;2024-01-06T11:02:17;16.42;;;8.55;;
42084;SDS011;27746;52.228;20.890;2024-01-06T11:04:45;18.70;;;9.70;;
42084;SDS011;27746;52.228;20.890;2024-01-06T11:07:16;17.35;;;9.43;;
42084;SDS011;27746;52.228;20.890;2024-01-06T11:09:45;19.80;;;10.00;;
42084;SDS011;27746;52.228;20.890;2024-01-06T11:12:15;24.42;;;9.35;;
42084;SDS011;27746;52.228;20.890;2024-01-06T11:14:44;17.17;;;9.02;;
42084;SDS011;27746;52.228;20.890;2024-01-06T11:17:12;21.67;;;10.75;;
42084;SDS011;27746;52.228;20.890;2024-01-06T11:19:42;20.88;;;10.77;;
42084;SDS011;27746;52.228;20.890;2024-01-06T11:22:24;19.98;;;9.85;;
42084;SDS011;27746;52.228;20.890;2024-01-06T11:24:52;19.67;;;9.95;;
42084;SDS011;27746;52.228;20.890;2024-01-06T11:27:19;20.00;;;10.35;;
42084;SDS011;27746;52.228;20.890;2024-01-06T11:29:50;20.13;;;10.13;;
42084;SDS011;27746;52.228;20.890;2024-01-06T11:32:19;21.02;;;9.43;;
42084;SDS011;27746;52.228;20.890;2024-01-06T11:34:49;21.05;;;10.25;;
42084;SDS011;27746;52.228;20.890;2024-01-06T11:37:23;24.35;;;10.30;;
42084;SDS011;27746;52.228;20.890;2024-01-06T11:39:50;16.95;;;9.00;;
42084;SDS011;27746;52.228;20.890;2024-01-06T11:42:18;20.58;;;10.55;;
42084;SDS011;27746;52.228;20.890;2024-01-06T11:44:50;19.75;;;9.50;;
42084;SDS011;27746;52.228;20.890;2024-01-06T11:47:18;22.35;;;8.95;;
42084;SDS011;27746;52.228;20.890;2024-01-06T11:49:48;18.42;;;8.80;;
42084;SDS011;27746;52.228;20.890;2024-01-06T11:52:21;15.82;;;8.02;;
42084;SDS011;27746;52.228;20.890;2024-01-06T11:54:50;20.77;;;8.95;;
42084;SDS011;27746;52.228;20.890;2024-01-06T11:57:18;14.73;;;8.07;;
42084;SDS011;27746;52.228;20.890;2024-01-06T11:59:46;17.05;;;8.63;;
42084;SDS011;27746;52.228;20.890;2024-01-06T12:02:14;19.80;;;9.90;;
42084;SDS011;27746;52.228;20.890;2024-01-06T12:04:41;13.65;;;8.02;;
42084;SDS011;27746;52.228;20.890;2024-01-06T12:07:10;13.63;;;7.68;;
42084;SDS011;27746;52.228;20.890;2024-01-06T12:09:39;14.82;;;7.78;;
42084;SDS011;27746;52.228;20.890;2024-01-06T12:12:07;16.73;;;8.07;;
42084;SDS011;27746;52.228;20.890;2024-01-06T12:14:34;13.88;;;7.72;;
42084;SDS011;27746;52.228;20.890;2024-01-06T12:17:01;17.40;;;8.30;;
42084;SDS011;27746;52.228;20.890;2024-01-06T12:19:31;14.27;;;8.13;;
42084;SDS011;27746;52.228;20.890;2024-01-06T12:21:58;15.88;;;7.63;;
42084;SDS011;27746;52.228;20.890;2024-01-06T12:24:26;17.02;;;8.15;;
42084;SDS011;27746;52.228;20.890;2024-01-06T12:26:54;15.35;;;8.55;;
42084;SDS011;27746;52.228;20.890;2024-01-06T12:29:22;18.05;;;8.32;;
42084;SDS011;27746;52.228;20.890;2024-01-06T12:31:49;15.52;;;7.05;;
42084;SDS011;27746;52.228;20.890;2024-01-06T12:34:16;13.30;;;7.00;;
42084;SDS011;27746;52.228;20.890;2024-01-06T12:36:44;12.77;;;6.90;;
42084;SDS011;27746;52.228;20.890;2024-01-06T12:39:13;16.73;;;7.78;;
42084;SDS011;27746;52.228;20.890;2024-01-06T12:41:42;16.27;;;8.13;;
42084;SDS011;27746;52.228;20.890;2024-01-06T12:44:09;13.02;;;7.10;;
42084;SDS011;27746;52.228;20.890;2024-01-06T12:46:37;15.63;;;6.97;;
42084;SDS011;27746;52.228;20.890;2024-01-06T12:49:05;15.57;;;7.40;;
42084;SDS011;27746;52.228;20.890;2024-01-06T12:51:32;13.23;;;6.50;;
42084;SDS011;27746;52.228;20.890;2024-01-06T12:54:01;12.93;;;6.70;;
42084;SDS011;27746;52.228;20.890;2024-01-06T12:56:28;12.27;;;6.45;;
42084;SDS011;27746;52.228;20.890;2024-01-06T12:58:56;14.32;;;6.35;;
42084;SDS011;27746;52.228;20.890;2024-01-06T13:01:23;12.23;;;5.45;;
42084;SDS011;27746;52.228;20.890;2024-01-06T13:03:50;15.48;;;7.57;;
42084;SDS011;27746;52.228;20.890;2024-01-06T13:06:18;12.48;;;5.93;;
42084;SDS011;27746;52.228;20.890;2024-01-06T13:08:46;12.48;;;6.90;;
42084;SDS011;27746;52.228;20.890;2024-01-06T13:11:15;13.85;;;6.47;;
42084;SDS011;27746;52.228;20.890;2024-01-06T13:13:43;11.20;;;6.20;;
42084;SDS011;27746;52.228;20.890;2024-01-06T13:16:10;12.75;;;6.55;;
42084;SDS011;27746;52.228;20.890;2024-01-06T13:18:37;13.65;;;6.97;;
42084;SDS011;27746;52.228;20.890;2024-01-06T13:21:05;12.10;;;6.50;;
42084;SDS011;27746;52.228;20.890;2024-01-06T13:23:32;14.05;;;6.53;;
42084;SDS011;27746;52.228;20.890;2024-01-06T13:25:59;12.70;;;6.57;;
42084;SDS011;27746;52.228;20.890;2024-01-06T13:28:27;17.20;;;6.93;;
42084;SDS011;27746;52.228;20.890;2024-01-06T13:30:55;15.80;;;8.05;;
42084;SDS011;27746;52.228;20.890;2024-01-06T13:33:22;13.05;;;6.57;;
42084;SDS011;27746;52.228;20.890;2024-01-06T13:35:49;13.85;;;7.03;;
42084;SDS011;27746;52.228;20.890;2024-01-06T13:38:17;13.82;;;7.47;;
42084;SDS011;27746;52.228;20.890;2024-01-06T13:40:44;12.50;;;5.50;;
42084;SDS011;27746;52.228;20.890;2024-01-06T13:43:11;9.65;;;5.10;;
42084;SDS011;27746;52.228;20.890;2024-01-06T13:45:42;9.23;;;5.40;;
42084;SDS011;27746;52.228;20.890;2024-01-06T13:48:09;12.48;;;6.00;;
42084;SDS011;27746;52.228;20.890;2024-01-06T13:50:36;10.18;;;5.40;;
42084;SDS011;27746;52.228;20.890;2024-01-06T13:53:04;11.88;;;5.85;;
42084;SDS011;27746;52.228;20.890;2024-01-06T13:55:31;8.50;;;5.65;;
42084;SDS011;27746;52.228;20.890;2024-01-06T13:57:59;11.27;;;6.28;;
42084;SDS011;27746;52.228;20.890;2024-01-06T14:00:26;10.20;;;5.57;;
42084;SDS011;27746;52.228;20.890;2024-01-06T14:02:55;10.70;;;6.07;;
42084;SDS011;27746;52.228;20.890;2024-01-06T14:05:22;11.73;;;6.45;;
42084;SDS011;27746;52.228;20.890;2024-01-06T14:07:49;10.77;;;5.13;;
42084;SDS011;27746;52.228;20.890;2024-01-06T14:10:16;10.35;;;5.45;;
42084;SDS011;27746;52.228;20.890;2024-01-06T14:12:43;12.18;;;5.95;;
42084;SDS011;27746;52.228;20.890;2024-01-06T14:15:11;11.48;;;5.35;;
42084;SDS011;27746;52.228;20.890;2024-01-06T14:17:38;10.88;;;4.97;;
42084;SDS011;27746;52.228;20.890;2024-01-06T14:20:07;9.80;;;4.65;;